Time;durP1;ratioP1;P1;durP2;ratioP2;P2;SDS_P1;SDS_P2;PMS_P1;PMS_P2;Temp;Humidity;BMP_temperature;BMP_pressure;BME280_temperature;BME280_humidity;BME280_pressure;Samples;Min_cycle;Max_cycle;Signal;HPM_P1;HPM_P2
2021/12/08 00:00:59;;;;;;;;;1.00;0.00;;;;;-147.17;100.00;50399.13;4972955;28;51406;-69
2021/12/08 00:03:28;;;;;;;;;0.00;0.00;;;;;-147.17;100.00;50391.25;4990957;28;52998;-69
2021/12/08 00:05:54;;;;;;;;;1.00;0.00;;;;;-147.17;100.00;50432.59;4959956;28;51050;-68
2021/12/08 00:08:22;;;;;;;;;0.00;0.00;;;;;-147.17;100.00;50399.13;4956818;28;51115;-68
2021/12/08 00:13:29;;;;;;;;;1.00;1.00;;;;;-147.17;100.00;50395.19;4975241;28;51603;-69
2021/12/08 00:15:58;;;;;;;;;0.00;0.00;;;;;-147.17;100.00;50422.75;4973744;28;51189;-69
2021/12/08 00:18:27;;;;;;;;;0.00;0.00;;;;;-147.17;100.00;50383.38;4976078;28;50989;-69
2021/12/08 00:20:59;;;;;;;;;1.00;0.00;;;;;-147.17;100.00;50379.44;4970017;28;51265;-68
2021/12/08 00:23:25;;;;;;;;;1.00;0.00;;;;;-147.17;100.00;50418.81;4956243;28;51372;-69
2021/12/08 00:25:51;;;;;;;;;1.00;1.00;;;;;-147.17;100.00;50363.69;4974723;28;51031;-69
2021/12/08 00:28:18;;;;;;;;;0.33;0.33;;;;;-147.17;100.00;50387.31;4971083;28;50956;-68
2021/12/08 00:30:47;;;;;;;;;1.00;0.00;;;;;-147.17;100.00;50373.53;4972643;28;50962;-68
2021/12/08 00:33:14;;;;;;;;;1.00;0.00;;;;;-147.17;100.00;50359.75;4975362;28;52107;-68
2021/12/08 00:35:41;;;;;;;;;1.67;1.00;;;;;-147.17;100.00;50353.84;4971792;28;51056;-68
2021/12/08 00:38:08;;;;;;;;;0.00;0.00;;;;;-147.17;100.00;50391.25;4961964;28;50933;-68
2021/12/08 00:40:35;;;;;;;;;1.00;0.33;;;;;-147.17;100.00;50389.28;4963511;28;51455;-68
2021/12/08 00:43:00;;;;;;;;;0.00;0.00;;;;;-147.17;100.00;50387.31;4966326;28;51688;-68
2021/12/08 00:45:27;;;;;;;;;1.67;1.00;;;;;-147.17;100.00;50387.31;4969184;28;51046;-68
2021/12/08 00:47:54;;;;;;;;;1.00;0.00;;;;;-147.17;100.00;50369.59;4975627;28;50963;-68
2021/12/08 00:50:23;;;;;;;;;0.00;0.00;;;;;-147.17;100.00;50371.56;4974053;28;51253;-70
2021/12/08 00:52:51;;;;;;;;;0.00;0.00;;;;;-147.17;100.00;50381.41;4966566;28;52067;-68
2021/12/08 00:55:16;;;;;;;;;0.00;0.00;;;;;-147.17;100.00;50367.63;4970098;28;51081;-68
2021/12/08 00:57:42;;;;;;;;;0.00;0.00;;;;;-147.17;100.00;50377.47;4955250;28;51230;-68
2021/12/08 01:00:12;;;;;;;;;1.00;0.00;;;;;-147.17;100.00;50391.25;4966044;28;51233;-68
2021/12/08 01:02:39;;;;;;;;;0.00;0.00;;;;;-147.17;100.00;50359.75;4964885;28;51798;-68
2021/12/08 01:05:11;;;;;;;;;0.00;0.00;;;;;-147.17;100.00;50387.31;4957278;28;51496;-68
2021/12/08 01:07:36;;;;;;;;;1.00;0.00;;;;;-147.17;100.00;50379.44;4974403;28;50976;-68
2021/12/08 01:10:04;;;;;;;;;1.00;0.00;;;;;-147.17;100.00;50399.13;4971834;28;51231;-69
2021/12/08 01:12:30;;;;;;;;;0.00;0.00;;;;;-147.17;100.00;50365.66;4974088;28;51880;-68
2021/12/08 01:14:55;;;;;;;;;0.67;0.67;;;;;-147.17;100.00;50349.91;4970773;28;51093;-68
2021/12/08 01:17:21;;;;;;;;;1.00;0.00;;;;;-147.17;100.00;50385.34;4955608;28;50944;-68
2021/12/08 01:19:46;;;;;;;;;0.00;0.00;;;;;-147.17;100.00;50383.38;4962790;28;51303;-69
2021/12/08 01:22:11;;;;;;;;;0.00;0.00;;;;;-147.17;100.00;50369.59;4974850;28;52662;-67
2021/12/08 01:24:37;;;;;;;;;1.00;0.00;;;;;-147.17;100.00;50401.09;4973904;28;51004;-68
2021/12/08 01:27:03;;;;;;;;;0.33;0.00;;;;;-147.17;100.00;50389.28;4966422;28;51016;-68
2021/12/08 01:29:28;;;;;;;;;0.33;0.00;;;;;-147.17;100.00;50389.28;4988116;28;51142;-70
2021/12/08 01:31:53;;;;;;;;;2.00;0.00;;;;;-147.17;100.00;50403.06;4974784;28;51677;-68
2021/12/08 01:34:19;;;;;;;;;0.00;0.00;;;;;-147.17;100.00;50410.94;4974699;28;51035;-69
2021/12/08 01:36:44;;;;;;;;;0.00;0.00;;;;;-147.17;100.00;50367.63;4963280;28;51371;-68
2021/12/08 01:39:10;;;;;;;;;0.00;0.00;;;;;-147.17;100.00;50401.09;4958201;28;51241;-68
2021/12/08 01:41:36;;;;;;;;;0.00;0.00;;;;;-147.17;100.00;50420.78;4963630;28;52786;-68
2021/12/08 01:46:47;;;;;;;;;0.00;0.00;;;;;-147.17;100.00;50385.34;4956493;28;50945;-68
2021/12/08 01:49:13;;;;;;;;;0.00;0.00;;;;;-147.17;100.00;50403.06;4957993;28;51339;-68
2021/12/08 01:51:38;;;;;;;;;0.00;0.00;;;;;-147.17;100.00;50395.19;4971452;28;51117;-68
2021/12/08 01:54:05;;;;;;;;;0.00;0.00;;;;;-147.17;100.00;50405.03;4967845;28;51159;-68
2021/12/08 01:56:32;;;;;;;;;0.00;0.00;;;;;-147.17;100.00;50377.47;4954556;28;50978;-68
2021/12/08 01:58:58;;;;;;;;;0.00;0.00;;;;;-147.17;100.00;50395.19;4954515;28;51113;-68
2021/12/08 02:01:27;;;;;;;;;0.00;0.00;;;;;-147.17;100.00;50403.06;4960435;28;51941;-68
2021/12/08 02:03:52;;;;;;;;;0.00;0.00;;;;;-147.17;100.00;50367.63;4954815;28;51078;-68
2021/12/08 02:06:20;;;;;;;;;0.00;0.00;;;;;-147.17;100.00;50387.31;4960071;28;51207;-68
2021/12/08 02:08:48;;;;;;;;;0.50;0.00;;;;;-147.17;100.00;50349.91;4989641;28;50998;-67
2021/12/08 02:11:14;;;;;;;;;0.00;0.00;;;;;-147.17;100.00;50359.75;4958762;28;51089;-68
2021/12/08 02:13:40;;;;;;;;;0.00;0.00;;;;;-147.17;100.00;50383.38;4957346;28;51081;-68
2021/12/08 02:16:14;;;;;;;;;1.00;0.00;;;;;-147.17;100.00;50363.69;4973868;28;51046;-67
2021/12/08 02:18:40;;;;;;;;;0.00;0.00;;;;;-147.17;100.00;50367.63;4974085;28;51288;-68
2021/12/08 02:21:23;;;;;;;;;1.00;1.00;;;;;-147.17;100.00;50345.97;4972706;28;50882;-69
2021/12/08 02:23:49;;;;;;;;;0.00;0.00;;;;;-147.17;100.00;50340.06;4973966;28;51150;-69
2021/12/08 02:26:15;;;;;;;;;0.00;0.00;;;;;-147.17;100.00;50347.94;4959121;28;51006;-68
2021/12/08 02:28:40;;;;;;;;;1.00;0.00;;;;;-147.17;100.00;50359.75;4961582;28;51028;-68
2021/12/08 02:31:10;;;;;;;;;0.00;0.00;;;;;-147.17;100.00;50349.91;4965298;28;51959;-68
2021/12/08 02:47:31;;;;;;;;;0.00;0.00;;;;;-147.17;100.00;50344.00;4972643;28;51321;-68
2021/12/08 02:49:57;;;;;;;;;0.33;0.33;;;;;-147.17;100.00;50342.03;4974996;28;51197;-69
2021/12/08 02:52:23;;;;;;;;;1.00;1.00;;;;;-147.17;100.00;50353.84;4973978;28;51762;-68
2021/12/08 02:54:51;;;;;;;;;1.00;0.00;;;;;-147.17;100.00;50342.03;4956748;28;51288;-69
2021/12/08 02:57:18;;;;;;;;;0.00;0.00;;;;;-147.17;100.00;50320.38;4956605;28;51198;-69
2021/12/08 02:59:46;;;;;;;;;0.00;0.00;;;;;-147.17;100.00;50328.25;4959316;28;51059;-68
2021/12/08 03:02:12;;;;;;;;;0.00;0.00;;;;;-147.17;100.00;50373.53;4957055;28;52249;-67
2021/12/08 03:04:38;;;;;;;;;1.00;1.00;;;;;-147.17;100.00;50351.88;4960081;28;51135;-67
2021/12/08 03:07:04;;;;;;;;;0.00;0.00;;;;;-147.17;100.00;50363.69;4958609;28;51225;-68
2021/12/08 03:09:30;;;;;;;;;0.00;0.00;;;;;-147.17;100.00;50344.00;4973552;28;52890;-69
2021/12/08 03:11:58;;;;;;;;;1.00;0.00;;;;;-147.17;100.00;50363.69;4960680;28;50971;-68
2021/12/08 03:14:25;;;;;;;;;1.00;0.00;;;;;-147.17;100.00;50367.63;4959222;28;51042;-67
2021/12/08 03:16:55;;;;;;;;;0.00;0.00;;;;;-147.17;100.00;50375.50;4976163;28;51230;-69
2021/12/08 03:19:23;;;;;;;;;0.00;0.00;;;;;-147.17;100.00;50340.06;4975556;28;51174;-69
2021/12/08 03:21:49;;;;;;;;;0.00;0.00;;;;;-147.17;100.00;50363.69;4958360;28;52900;-69
2021/12/08 03:27:06;;;;;;;;;0.33;0.33;;;;;-147.17;100.00;50375.50;4973290;28;51150;-68
2021/12/08 03:29:44;;;;;;;;;0.00;0.00;;;;;-147.17;100.00;50367.63;4968483;28;51016;-69
2021/12/08 03:32:15;;;;;;;;;0.00;0.00;;;;;-147.17;100.00;50336.13;4956872;28;51160;-68
2021/12/08 03:34:51;;;;;;;;;0.00;0.00;;;;;-147.17;100.00;50359.75;4956673;28;51020;-69
2021/12/08 03:37:24;;;;;;;;;0.33;0.33;;;;;-147.17;100.00;50351.88;4975359;28;50892;-67
2021/12/08 03:39:50;;;;;;;;;0.00;0.00;;;;;-147.17;100.00;50349.91;4975273;28;51370;-68
2021/12/08 03:42:20;;;;;;;;;0.33;0.00;;;;;-147.17;100.00;50375.50;4960325;28;52828;-68
2021/12/08 03:44:45;;;;;;;;;0.00;0.00;;;;;-147.17;100.00;50379.44;4976085;28;50980;-68
2021/12/08 03:47:16;;;;;;;;;0.00;0.00;;;;;-147.17;100.00;50367.63;4974922;28;51221;-70
2021/12/08 03:49:44;;;;;;;;;0.00;0.00;;;;;-147.17;100.00;50349.91;4973715;28;51157;-68
2021/12/08 03:52:10;;;;;;;;;0.00;0.00;;;;;-147.17;100.00;50373.53;4975328;28;51693;-68
2021/12/08 03:54:36;;;;;;;;;0.00;0.00;;;;;-147.17;100.00;50361.72;4976116;28;51063;-68
2021/12/08 03:57:01;;;;;;;;;1.00;0.00;;;;;-147.17;100.00;50345.97;4976011;28;51004;-69
2021/12/08 03:59:26;;;;;;;;;1.67;0.00;;;;;-147.17;100.00;50351.88;4975084;28;51138;-68
2021/12/08 04:01:52;;;;;;;;;0.50;0.00;;;;;-147.17;100.00;50324.31;4973679;28;51749;-69
2021/12/08 04:04:17;;;;;;;;;0.00;0.00;;;;;-147.17;100.00;50355.81;4975871;28;51284;-68
2021/12/08 04:06:49;;;;;;;;;0.00;0.00;;;;;-147.17;100.00;50379.44;4975828;28;50948;-68
2021/12/08 04:09:25;;;;;;;;;1.00;1.00;;;;;-147.17;100.00;50367.63;4975377;28;52616;-68
2021/12/08 04:11:50;;;;;;;;;0.00;0.00;;;;;-147.17;100.00;50338.09;4968592;28;52029;-68
2021/12/08 04:14:19;;;;;;;;;1.00;1.00;;;;;-147.17;100.00;50359.75;4954988;28;51078;-68
2021/12/08 04:16:56;;;;;;;;;0.00;0.00;;;;;-147.17;100.00;50363.69;4956283;28;50905;-68
2021/12/08 04:19:23;;;;;;;;;1.33;0.67;;;;;-147.17;100.00;50371.56;4966310;28;51210;-68
2021/12/08 04:21:51;;;;;;;;;0.00;0.00;;;;;-147.17;100.00;50344.00;4961357;28;51146;-68
2021/12/08 04:24:17;;;;;;;;;1.00;0.00;;;;;-147.17;100.00;50373.53;4956170;28;51015;-68
2021/12/08 04:26:50;;;;;;;;;0.00;0.00;;;;;-147.17;100.00;50363.69;4956418;28;51133;-69
2021/12/08 04:29:18;;;;;;;;;0.00;0.00;;;;;-147.17;100.00;50326.28;4973664;28;51423;-69
2021/12/08 04:31:46;;;;;;;;;0.50;0.50;;;;;-147.17;100.00;50332.19;4974569;28;51872;-69
2021/12/08 04:34:18;;;;;;;;;1.00;0.00;;;;;-147.17;100.00;50347.94;4959167;28;51002;-68
2021/12/08 04:36:48;;;;;;;;;2.00;1.00;;;;;-147.17;100.00;50338.09;4965853;28;50893;-68
2021/12/08 04:39:28;;;;;;;;;1.50;0.25;;;;;-147.17;100.00;50336.13;4971123;28;51450;-68
2021/12/08 04:42:00;;;;;;;;;1.00;0.33;;;;;-147.17;100.00;50407.00;4973253;28;52350;-68
2021/12/08 04:44:37;;;;;;;;;1.00;1.00;;;;;-147.17;100.00;50347.94;4955848;28;51103;-68
2021/12/08 04:52:38;;;;;;;;;1.00;1.00;;;;;-147.17;100.00;50351.88;4955993;28;51541;-68
2021/12/08 05:06:25;;;;;;;;;1.00;0.00;;;;;-147.17;100.00;50332.19;4961203;28;51107;-68
2021/12/08 05:08:55;;;;;;;;;0.25;0.00;;;;;-147.17;100.00;50338.09;4966289;28;51201;-68
2021/12/08 05:11:31;;;;;;;;;2.00;0.00;;;;;-147.17;100.00;50320.38;4955426;28;51113;-68
2021/12/08 05:14:21;;;;;;;;;1.00;1.00;;;;;-147.17;100.00;50332.19;4964266;28;51825;-67
2021/12/08 05:16:50;;;;;;;;;0.00;0.00;;;;;-147.17;100.00;50342.03;4972449;28;51042;-68
2021/12/08 05:19:18;;;;;;;;;0.00;0.00;;;;;-147.17;100.00;50316.44;4972070;28;51162;-67
2021/12/08 05:22:10;;;;;;;;;1.00;1.00;;;;;-147.17;100.00;50344.00;4973688;28;51423;-67
2021/12/08 05:24:40;;;;;;;;;1.75;0.75;;;;;-147.17;100.00;50326.28;4974360;28;52842;-67
2021/12/08 05:27:16;;;;;;;;;1.00;0.00;;;;;-147.17;100.00;50342.03;4968772;28;51132;-67
2021/12/08 05:29:46;;;;;;;;;1.50;1.00;;;;;-147.17;100.00;50300.72;4971868;28;51127;-68
2021/12/08 05:32:13;;;;;;;;;0.75;0.25;;;;;-147.17;100.00;50334.16;4974858;28;51000;-67
2021/12/08 05:34:40;;;;;;;;;1.00;0.25;;;;;-147.17;100.00;50355.81;4973382;28;51769;-67
2021/12/08 05:37:08;;;;;;;;;0.67;0.00;;;;;-147.17;100.00;50351.88;4972667;28;51244;-67
2021/12/08 05:39:36;;;;;;;;;1.00;1.00;;;;;-147.17;100.00;50334.16;4969277;28;51273;-68
2021/12/08 05:42:06;;;;;;;;;1.00;0.75;;;;;-147.17;100.00;50355.81;4974563;28;51269;-69
2021/12/08 05:44:32;;;;;;;;;0.33;0.33;;;;;-147.17;100.00;50326.28;4972750;28;52086;-67
2021/12/08 05:47:01;;;;;;;;;1.50;1.50;;;;;-147.17;100.00;50312.53;4972555;28;51015;-67
2021/12/08 05:49:27;;;;;;;;;1.25;1.00;;;;;-147.17;100.00;50344.00;4968935;28;51044;-68
2021/12/08 05:51:54;;;;;;;;;0.00;0.00;;;;;-147.17;100.00;50330.22;4972868;28;51310;-69
2021/12/08 05:54:26;;;;;;;;;0.33;0.33;;;;;-147.17;100.00;50340.06;4974568;28;51086;-67
2021/12/08 05:56:56;;;;;;;;;1.00;1.00;;;;;-147.17;100.00;50334.16;4973108;28;50987;-69
2021/12/08 05:59:23;;;;;;;;;1.00;1.00;;;;;-147.17;100.00;50326.28;4964317;28;51083;-67
2021/12/08 06:01:57;;;;;;;;;0.00;0.00;;;;;-147.17;100.00;50336.13;4961568;28;51360;-67
2021/12/08 06:04:25;;;;;;;;;1.00;1.00;;;;;-147.17;100.00;50342.03;4954424;28;51749;-67
2021/12/08 06:06:51;;;;;;;;;1.00;1.00;;;;;-147.17;100.00;50353.84;4969429;28;51134;-67
2021/12/08 06:09:19;;;;;;;;;2.00;0.00;;;;;-147.17;100.00;50332.19;4965947;28;50915;-67
2021/12/08 06:11:46;;;;;;;;;1.00;1.00;;;;;-147.17;100.00;50316.44;4962948;28;51015;-66
2021/12/08 06:14:13;;;;;;;;;1.00;0.00;;;;;-147.17;100.00;50328.25;4962344;28;51216;-67
2021/12/08 06:16:40;;;;;;;;;1.00;0.25;;;;;-147.17;100.00;50336.13;4971466;28;51092;-68
2021/12/08 06:19:08;;;;;;;;;1.25;0.75;;;;;-147.17;100.00;50345.97;4972451;28;51026;-70
2021/12/08 06:21:35;;;;;;;;;2.50;1.00;;;;;-147.17;100.00;50308.59;4974281;28;51221;-68
2021/12/08 06:24:05;;;;;;;;;1.00;1.00;;;;;-147.17;100.00;50310.56;4953618;28;50934;-67
2021/12/08 06:26:30;;;;;;;;;1.25;0.00;;;;;-147.17;100.00;50359.75;4952922;28;51134;-68
2021/12/08 06:28:57;;;;;;;;;1.00;0.00;;;;;-147.17;100.00;50344.00;4970701;28;51148;-67
2021/12/08 06:31:25;;;;;;;;;1.00;0.25;;;;;-147.17;100.00;50322.34;4955084;28;50938;-68
2021/12/08 06:33:51;;;;;;;;;3.00;1.75;;;;;-147.17;100.00;50336.13;4954318;28;51843;-69
2021/12/08 06:36:32;;;;;;;;;2.75;2.00;;;;;-147.17;100.00;50320.38;4972281;28;51337;-68
2021/12/08 06:38:58;;;;;;;;;1.00;1.00;;;;;-147.17;100.00;50351.88;4958608;28;51217;-68
2021/12/08 06:41:32;;;;;;;;;0.00;0.00;;;;;-147.17;100.00;50342.03;4954709;28;51147;-69
2021/12/08 06:44:04;;;;;;;;;2.00;0.75;;;;;-147.17;100.00;50316.44;4953340;28;52566;-68
2021/12/08 06:46:30;;;;;;;;;0.75;0.75;;;;;-147.17;100.00;50312.53;4953991;28;50953;-68
2021/12/08 06:48:58;;;;;;;;;1.00;1.00;;;;;-147.17;100.00;50320.38;4953890;28;51076;-69
2021/12/08 06:51:36;;;;;;;;;1.00;1.00;;;;;-147.17;100.00;50332.19;4957252;28;51194;-67
2021/12/08 06:54:08;;;;;;;;;1.25;0.25;;;;;-147.17;100.00;50324.31;4952820;28;51120;-68
2021/12/08 06:56:40;;;;;;;;;1.25;0.50;;;;;-147.17;100.00;50322.34;4948175;28;51129;-67
2021/12/08 06:59:12;;;;;;;;;2.00;1.50;;;;;-147.17;100.00;50340.06;4952588;28;51229;-67
2021/12/08 07:01:48;;;;;;;;;2.00;1.00;;;;;-147.17;100.00;50332.19;4967863;28;51105;-67
2021/12/08 07:04:29;;;;;;;;;1.00;1.00;;;;;-147.17;100.00;50300.72;4972818;28;51026;-67
2021/12/08 07:07:09;;;;;;;;;4.00;2.00;;;;;-147.17;100.00;50324.31;4972790;28;51240;-67
2021/12/08 07:09:54;;;;;;;;;1.75;1.00;;;;;-147.17;100.00;50347.94;4972913;28;51053;-67
2021/12/08 07:12:33;;;;;;;;;1.00;1.00;;;;;-147.17;100.00;50296.78;4963668;28;51376;-68
2021/12/08 07:15:20;;;;;;;;;3.00;2.00;;;;;-147.17;100.00;50332.19;4951473;28;50991;-67
2021/12/08 07:17:51;;;;;;;;;2.00;1.00;;;;;-147.17;100.00;50322.34;4964825;28;51129;-67
2021/12/08 07:20:41;;;;;;;;;0.75;0.00;;;;;-147.17;100.00;50320.38;4953554;28;50873;-68
2021/12/08 07:23:07;;;;;;;;;1.25;1.00;;;;;-147.17;100.00;50332.19;4953541;28;52040;-68
2021/12/08 07:25:33;;;;;;;;;1.00;0.33;;;;;-147.17;100.00;50326.28;4953108;28;50944;-68
2021/12/08 07:28:00;;;;;;;;;1.00;0.50;;;;;-147.17;100.00;50316.44;4962102;28;50894;-67
2021/12/08 07:30:37;;;;;;;;;3.00;0.00;;;;;-147.17;100.00;50326.28;4972189;28;50905;-69
2021/12/08 07:33:03;;;;;;;;;1.50;0.75;;;;;-147.17;100.00;50328.25;4972837;28;51047;-66
2021/12/08 07:35:35;;;;;;;;;3.00;2.00;;;;;-147.17;100.00;50344.00;4971751;28;51824;-67
2021/12/08 07:38:04;;;;;;;;;5.00;3.00;;;;;-147.17;100.00;50322.34;4967468;28;51068;-69
2021/12/08 07:40:40;;;;;;;;;3.50;3.25;;;;;-147.17;100.00;50312.53;4964049;28;51071;-69
2021/12/08 07:43:10;;;;;;;;;2.00;1.00;;;;;-147.17;100.00;50351.88;4975700;28;51189;-67
2021/12/08 07:45:47;;;;;;;;;2.00;2.00;;;;;-147.17;100.00;50336.13;4975370;28;50947;-67
2021/12/08 07:48:24;;;;;;;;;2.00;2.00;;;;;-147.17;100.00;50324.31;4975746;28;51099;-67
2021/12/08 07:51:03;;;;;;;;;2.00;2.00;;;;;-147.17;100.00;50316.44;4969924;28;51086;-68
2021/12/08 07:53:31;;;;;;;;;1.75;1.75;;;;;-147.17;100.00;50292.84;4956137;28;51175;-67
2021/12/08 07:56:03;;;;;;;;;3.00;3.00;;;;;-147.17;100.00;50318.41;4955832;28;52797;-67
2021/12/08 07:58:29;;;;;;;;;4.00;3.00;;;;;-147.17;100.00;50304.66;4955272;28;50970;-64
2021/12/08 08:01:00;;;;;;;;;4.00;2.00;;;;;-147.17;100.00;50300.72;4955855;28;50900;-67
2021/12/08 08:03:30;;;;;;;;;2.00;1.75;;;;;-147.17;100.00;50308.59;4968949;28;51160;-63
2021/12/08 08:05:58;;;;;;;;;3.00;3.00;;;;;-147.17;100.00;50316.44;4955600;28;53154;-65
2021/12/08 08:08:25;;;;;;;;;2.00;1.00;;;;;-147.17;100.00;50340.06;4954542;28;51085;-65
2021/12/08 08:11:01;;;;;;;;;1.50;1.50;;;;;-147.17;100.00;50316.44;4956302;28;51074;-67
2021/12/08 08:13:27;;;;;;;;;1.00;1.00;;;;;-147.17;100.00;50320.38;4955683;28;51038;-67
2021/12/08 08:16:05;;;;;;;;;1.75;1.50;;;;;-147.17;100.00;50345.97;4963938;28;52880;-66
2021/12/08 08:18:32;;;;;;;;;2.50;2.00;;;;;-147.17;100.00;50344.00;4968864;28;50983;-67
2021/12/08 08:21:03;;;;;;;;;1.75;1.00;;;;;-147.17;100.00;50342.03;4955733;28;51021;-67
2021/12/08 08:23:31;;;;;;;;;3.00;2.25;;;;;-147.17;100.00;50349.91;4963253;28;50905;-66
2021/12/08 08:25:59;;;;;;;;;1.25;1.25;;;;;-147.17;100.00;50312.53;4975125;28;51125;-68
2021/12/08 08:28:24;;;;;;;;;1.00;1.00;;;;;-147.17;100.00;50316.44;4974676;28;51015;-67
2021/12/08 08:30:59;;;;;;;;;2.25;1.25;;;;;-147.17;100.00;50338.09;4960647;28;51070;-66
2021/12/08 08:33:28;;;;;;;;;3.00;2.25;;;;;-147.17;100.00;50324.31;4955892;28;51165;-67
2021/12/08 08:35:56;;;;;;;;;1.50;1.00;;;;;-147.17;100.00;50336.13;4958613;28;51712;-67
2021/12/08 08:38:29;;;;;;;;;1.00;1.00;;;;;-147.17;100.00;50347.94;4964486;28;50967;-67
2021/12/08 08:41:04;;;;;;;;;2.50;1.00;;;;;-147.17;100.00;50371.56;4955320;28;51124;-67
2021/12/08 08:43:32;;;;;;;;;1.00;1.00;;;;;-147.17;100.00;50288.91;4955342;28;51067;-67
2021/12/08 08:46:04;;;;;;;;;1.75;1.00;;;;;-147.17;100.00;50338.09;4955466;28;51076;-66
2021/12/08 08:48:47;;;;;;;;;1.25;0.25;;;;;-147.17;100.00;50347.94;4954975;28;50957;-66
2021/12/08 08:51:21;;;;;;;;;1.25;1.00;;;;;-147.17;100.00;50336.13;4958792;28;51174;-66
2021/12/08 08:53:49;;;;;;;;;2.00;1.00;;;;;-147.17;100.00;50330.22;4955394;28;51115;-67
2021/12/08 08:56:37;;;;;;;;;2.75;1.50;;;;;-147.17;100.00;50351.88;4955543;28;51221;-66
2021/12/08 08:59:21;;;;;;;;;1.75;1.75;;;;;-147.17;100.00;50347.94;4974823;28;51011;-67
2021/12/08 09:01:52;;;;;;;;;2.50;1.00;;;;;-147.17;100.00;50344.00;4975146;28;50962;-67
2021/12/08 09:04:30;;;;;;;;;1.25;1.00;;;;;-147.17;100.00;50355.81;4975309;28;51118;-67
2021/12/08 09:07:02;;;;;;;;;1.50;1.50;;;;;-147.17;100.00;50379.44;4974255;28;52977;-66
2021/12/08 09:09:30;;;;;;;;;2.00;2.00;;;;;-147.17;100.00;50340.06;4974234;28;51085;-66
2021/12/08 09:12:06;;;;;;;;;1.00;0.50;;;;;-147.17;100.00;50355.81;4954163;28;51056;-67
2021/12/08 09:14:39;;;;;;;;;1.00;1.00;;;;;-147.17;100.00;50371.56;4945657;28;51373;-67
2021/12/08 09:17:13;;;;;;;;;1.00;1.00;;;;;-147.17;100.00;50355.81;4954817;28;52043;-67
2021/12/08 09:19:48;;;;;;;;;1.00;1.00;;;;;-147.17;100.00;50347.94;4954811;28;50898;-68
2021/12/08 09:22:22;;;;;;;;;1.33;1.00;;;;;-147.17;100.00;50359.75;4955213;28;51126;-67
2021/12/08 09:25:04;;;;;;;;;2.00;1.33;;;;;-147.17;100.00;50371.56;4954736;28;51002;-67
2021/12/08 09:27:37;;;;;;;;;2.50;1.75;;;;;-147.17;100.00;50379.44;4959415;28;52363;-66
2021/12/08 09:30:31;;;;;;;;;2.00;2.00;;;;;-147.17;100.00;50336.13;4965594;28;50943;-67
2021/12/08 09:33:02;;;;;;;;;1.00;1.00;;;;;-147.17;100.00;50403.06;4954392;28;51298;-66
2021/12/08 09:35:37;;;;;;;;;3.00;2.00;;;;;-147.17;100.00;50381.41;4954654;28;51375;-67
2021/12/08 09:38:14;;;;;;;;;2.00;1.25;;;;;-147.17;100.00;50357.78;4972121;28;52707;-66
2021/12/08 09:40:43;;;;;;;;;1.00;1.00;;;;;-147.17;100.00;50371.56;4973982;28;50912;-66
2021/12/08 09:43:19;;;;;;;;;1.00;1.00;;;;;-147.17;100.00;50367.63;4973952;28;51036;-66
2021/12/08 09:46:10;;;;;;;;;2.75;2.50;;;;;-147.17;100.00;50375.50;4973712;28;50993;-67
2021/12/08 09:48:38;;;;;;;;;1.00;1.00;;;;;-147.17;100.00;50375.50;4970333;28;51295;-66
2021/12/08 09:51:04;;;;;;;;;2.00;1.67;;;;;-147.17;100.00;50369.59;4967612;28;51121;-67
2021/12/08 09:53:30;;;;;;;;;2.00;2.00;;;;;-147.17;100.00;50373.53;4954168;28;51113;-66
2021/12/08 09:55:56;;;;;;;;;2.00;2.00;;;;;-147.17;100.00;50336.13;4954421;28;51126;-67
2021/12/08 09:58:22;;;;;;;;;32.75;29.75;;;;;-147.17;100.00;50391.25;4952517;28;52155;-65
2021/12/08 10:00:52;;;;;;;;;3.75;3.25;;;;;-147.17;100.00;50430.63;4953861;28;51171;-66
2021/12/08 10:03:18;;;;;;;;;2.00;1.67;;;;;-147.17;100.00;50403.06;4954188;28;51255;-66
2021/12/08 10:05:43;;;;;;;;;1.00;1.00;;;;;-147.17;100.00;50391.25;4954426;28;51213;-67
2021/12/08 10:08:10;;;;;;;;;1.00;1.00;;;;;-147.17;100.00;50395.19;4954071;28;51499;-67
2021/12/08 10:10:38;;;;;;;;;3.00;2.00;;;;;-147.17;100.00;50422.75;4954001;28;51095;-67
2021/12/08 10:13:05;;;;;;;;;3.67;2.67;;;;;-147.17;100.00;50414.88;4961511;28;50925;-67
2021/12/08 10:15:30;;;;;;;;;2.00;1.67;;;;;-147.17;100.00;50405.03;4954431;28;51044;-67
2021/12/08 10:17:57;;;;;;;;;2.00;2.00;;;;;-147.17;100.00;50377.47;4952257;28;51697;-67
2021/12/08 10:20:28;;;;;;;;;2.00;2.00;;;;;-147.17;100.00;50420.78;4954284;28;51038;-67
2021/12/08 10:23:10;;;;;;;;;2.00;2.00;;;;;-147.17;100.00;50397.16;4953830;28;50979;-66
2021/12/08 10:25:41;;;;;;;;;1.00;1.00;;;;;-147.17;100.00;50381.41;4954031;28;51415;-66
2021/12/08 10:28:19;;;;;;;;;4.00;3.00;;;;;-147.17;100.00;50410.94;4963165;28;52007;-67
2021/12/08 10:30:52;;;;;;;;;2.00;1.00;;;;;-147.17;100.00;50403.06;4960489;28;51110;-68
2021/12/08 10:34:02;;;;;;;;;1.00;1.00;;;;;-147.17;100.00;50407.00;4952111;28;51218;-66
2021/12/08 10:36:45;;;;;;;;;2.67;2.00;;;;;-147.17;100.00;50403.06;4939922;28;51397;-67
2021/12/08 10:39:36;;;;;;;;;1.00;1.00;;;;;-147.17;100.00;50452.28;4952842;28;53016;-67
2021/12/08 10:42:26;;;;;;;;;3.00;2.00;;;;;-147.17;100.00;50414.88;4953343;28;50944;-66
2021/12/08 10:45:10;;;;;;;;;1.00;1.00;;;;;-147.17;100.00;50424.72;4953304;28;51158;-66
2021/12/08 10:47:47;;;;;;;;;3.33;3.33;;;;;-147.17;100.00;50401.09;4953497;28;51440;-66
2021/12/08 10:55:57;;;;;;;;;1.33;1.33;;;;;-147.17;100.00;50434.56;4972434;28;51079;-66
2021/12/08 10:58:26;;;;;;;;;1.33;1.00;;;;;-147.17;100.00;50454.25;4984933;28;51454;-66
2021/12/08 11:00:54;;;;;;;;;2.00;2.00;;;;;-147.17;100.00;50450.31;4964379;28;51914;-68
2021/12/08 11:03:20;;;;;;;;;1.00;1.00;;;;;-147.17;100.00;50456.22;4952516;28;51104;-67
2021/12/08 11:05:50;;;;;;;;;1.00;1.00;;;;;-147.17;100.00;50434.56;4952687;28;51079;-67
2021/12/08 11:08:32;;;;;;;;;3.67;2.00;;;;;-147.17;100.00;50420.78;4952946;28;51247;-66
2021/12/08 11:11:00;;;;;;;;;3.00;2.00;;;;;-147.17;100.00;50414.88;4957602;28;51895;-67
2021/12/08 11:13:34;;;;;;;;;1.67;1.67;;;;;-147.17;100.00;50430.63;4957996;28;51153;-68
2021/12/08 11:16:04;;;;;;;;;3.67;1.67;;;;;-147.17;100.00;50454.25;4956426;28;51189;-67
2021/12/08 11:18:30;;;;;;;;;0.00;0.00;;;;;-147.17;100.00;50446.38;4956555;28;50905;-68
2021/12/08 11:21:03;;;;;;;;;1.33;1.33;;;;;-147.17;100.00;50440.47;4956410;28;50925;-67
2021/12/08 11:26:14;;;;;;;;;3.75;3.25;;;;;-147.17;100.00;50434.56;4976298;28;51266;-67
2021/12/08 11:28:41;;;;;;;;;7.00;3.67;;;;;-147.17;100.00;50464.09;4970629;28;51275;-67
2021/12/08 11:31:14;;;;;;;;;4.33;3.00;;;;;-147.17;100.00;50473.94;4955811;28;52147;-67
2021/12/08 11:33:48;;;;;;;;;4.33;4.00;;;;;-147.17;100.00;50485.75;4954050;28;51054;-66
2021/12/08 11:36:25;;;;;;;;;3.00;3.00;;;;;-147.17;100.00;50501.50;4963770;28;51016;-67
2021/12/08 11:38:51;;;;;;;;;3.67;2.67;;;;;-147.17;100.00;50485.75;4975552;28;51045;-67
2021/12/08 11:41:39;;;;;;;;;1.00;1.00;;;;;-147.17;100.00;50501.50;4975155;28;51655;-67
2021/12/08 11:44:16;;;;;;;;;2.67;1.00;;;;;-147.17;100.00;50499.53;4975316;28;51003;-67
2021/12/08 11:46:49;;;;;;;;;3.00;2.67;;;;;-147.17;100.00;50442.44;4990465;28;51106;-67
2021/12/08 11:49:15;;;;;;;;;4.33;4.33;;;;;-147.17;100.00;50477.88;4975693;28;51150;-67
2021/12/08 11:51:44;;;;;;;;;3.00;3.00;;;;;-147.17;100.00;50495.59;4967827;28;51112;-68
2021/12/08 11:54:32;;;;;;;;;4.00;4.00;;;;;-147.17;100.00;50558.59;4955982;28;50959;-67
2021/12/08 11:57:09;;;;;;;;;2.00;2.00;;;;;-147.17;100.00;50560.56;4954364;28;51141;-67
2021/12/08 12:00:06;;;;;;;;;3.00;3.00;;;;;-147.17;99.00;50596.00;4954758;28;51088;-68
2021/12/08 12:02:38;;;;;;;;;4.00;4.00;;;;;-147.17;100.00;50596.00;4953313;28;51268;-67
2021/12/08 12:05:11;;;;;;;;;3.67;3.00;;;;;-147.17;100.00;50588.13;4966734;28;51015;-68
2021/12/08 12:07:38;;;;;;;;;4.00;3.67;;;;;-147.17;100.00;50576.31;4962721;28;51194;-67
2021/12/08 12:10:05;;;;;;;;;3.00;2.00;;;;;-147.17;95.97;50617.66;4972746;28;51325;-67
2021/12/08 12:12:31;;;;;;;;;5.00;3.00;;;;;-147.17;97.92;50586.16;4964680;28;51091;-68